ěÝzenÝ letovÚho provozu ╚eskÚ republiky
Letiste: LKTB Aktualizace: 25.01.2022 10:30:29  UTC
 METAR LKTB 25.01. 10:30 ...
METAR LKTB 251030Z 19003KT 2900 BR OVC021 01/M00 Q1031 NOSIG RMK REG QNH 1027=
 TAF LKTB 25.01. 05:00 ...
TAF LKTB 250500Z 2506/2612 VRB02KT 9000 OVC015      TEMPO 2506/2603 OVC011      PROB30 TEMPO 2506/2509 2500 -SN BR BKN004      PROB30 TEMPO 2509/2520 OVC006      BECMG 2513/2515 32007KT      BECMG 2603/2605 SCT015=
 WARNING LKTB 25.01. 06:37 ...
LKTB AD WRNG 1 VALID 250700/251100 SN 1CM FCST INTSF=
 WARNING LKTB 25.01. 06:43 ...
LKTB AD WRNG 4 VALID 250700/251100 SN 1CM FCST INTSF=
 WARNING LKTB 25.01. 06:45 ...
LKTB AD WRNG 5 VALID 250700/251100 CNL AD WRNG 1 250700/251100=
 WARNING LKTB 25.01. 10:12 ...
LKTB AD WRNG 6 VALID 251020/251100 CNL AD WRNG 4 250700/251100=